Time;durP1;ratioP1;P1;durP2;ratioP2;P2;SDS_P1;SDS_P2;PMS_P1;PMS_P2;Temp;Humidity;BMP_temperature;BMP_pressure;BME280_temperature;BME280_humidity;BME280_pressure;Samples;Min_cycle;Max_cycle;Signal;HPM_P1;HPM_P2
2022/07/13 06:23:09;;;;;;;3.30;1.20;;;;;;;18.60;59.97;97207.34;2085546;28;20592;-67
2022/07/13 06:24:09;;;;;;;4.22;1.20;;;;;;;18.93;58.77;97198.94;2075976;28;20229;-68
2022/07/13 06:25:11;;;;;;;4.15;1.10;;;;;;;19.08;58.37;97202.31;2078442;28;20666;-68
2022/07/13 06:26:12;;;;;;;8.77;1.60;;;;;;;19.27;57.67;97201.00;2081101;28;20205;-68
2022/07/13 06:27:14;;;;;;;3.45;1.30;;;;;;;19.49;57.09;97200.31;2076363;28;20312;-68
2022/07/13 06:28:16;;;;;;;6.00;1.10;;;;;;;19.70;56.54;97205.84;2075010;28;20201;-68
2022/07/13 06:29:17;;;;;;;5.88;1.10;;;;;;;19.89;55.66;97196.59;2074695;28;20197;-68
2022/07/13 06:30:19;;;;;;;3.15;1.23;;;;;;;20.10;55.21;97207.41;2073812;28;20299;-68
2022/07/13 06:31:20;;;;;;;4.65;1.30;;;;;;;20.19;54.48;97204.06;2072833;28;20205;-68
2022/07/13 06:32:22;;;;;;;5.43;1.30;;;;;;;20.49;54.07;97204.50;2076056;28;20266;-68
2022/07/13 06:33:23;;;;;;;3.00;1.00;;;;;;;20.68;53.54;97199.50;2075361;28;20197;-68
2022/07/13 06:34:25;;;;;;;5.22;1.40;;;;;;;20.89;53.62;97206.78;2073250;28;20661;-68
2022/07/13 06:35:26;;;;;;;2.47;1.10;;;;;;;21.11;52.63;97210.41;2070924;28;20213;-67
2022/07/13 06:36:29;;;;;;;3.05;1.30;;;;;;;21.19;52.66;97206.19;2072545;28;20202;-66
2022/07/13 06:54:07;;;;;;;5.57;0.90;;;;;;;22.21;46.56;97186.50;2085575;28;21043;-65
2022/07/13 06:55:10;;;;;;;8.02;1.20;;;;;;;22.31;46.76;97192.75;2080050;28;20334;-67
2022/07/13 06:56:11;;;;;;;4.72;0.90;;;;;;;22.34;46.62;97191.63;2078139;28;20193;-67
2022/07/13 06:57:13;;;;;;;5.40;2.75;;;;;;;22.38;47.11;97193.09;2072418;28;20272;-65
2022/07/13 06:58:22;;;;;;;11.35;4.78;;;;;;;22.37;46.53;97187.91;2074791;28;20201;-65
2022/07/13 06:59:23;;;;;;;13.85;8.00;;;;;;;22.39;47.15;97189.47;2069035;28;20228;-65
2022/07/13 07:00:25;;;;;;;23.85;13.38;;;;;;;22.49;47.20;97194.88;2074490;28;20205;-65
2022/07/13 07:01:26;;;;;;;3.72;2.25;;;;;;;22.66;47.32;97193.41;2072300;28;20193;-65
2022/07/13 07:02:28;;;;;;;1.92;0.80;;;;;;;22.90;45.81;97198.44;2071315;28;20225;-66
2022/07/13 07:03:29;;;;;;;2.08;0.90;;;;;;;23.11;45.11;97192.25;2072493;28;20204;-66
2022/07/13 07:04:31;;;;;;;2.08;0.90;;;;;;;23.43;44.64;97197.44;2073782;28;20205;-65
2022/07/13 07:05:33;;;;;;;4.75;0.90;;;;;;;23.62;43.37;97191.31;2074082;28;20197;-65
2022/07/13 07:06:34;;;;;;;3.25;0.80;;;;;;;23.55;44.49;97192.81;2075939;28;20197;-65
2022/07/13 07:07:41;;;;;;;4.32;0.65;;;;;;;23.12;42.51;97196.59;2074983;28;20213;-66
2022/07/13 07:08:43;;;;;;;7.55;0.98;;;;;;;23.34;43.02;97190.25;2071881;28;20200;-67
2022/07/13 07:09:45;;;;;;;2.50;0.80;;;;;;;23.37;42.05;97186.47;2073626;28;20213;-66
2022/07/13 07:10:47;;;;;;;3.78;0.90;;;;;;;23.47;42.29;97190.00;2072572;28;20554;-67
2022/07/13 07:11:49;;;;;;;2.03;0.82;;;;;;;23.00;42.68;97186.03;2071221;28;20566;-67
2022/07/13 07:12:51;;;;;;;3.15;0.80;;;;;;;23.00;43.50;97182.53;2073068;28;20227;-66
2022/07/13 07:13:53;;;;;;;1.60;0.80;;;;;;;23.33;42.74;97193.06;2057325;28;20206;-66
2022/07/13 07:14:55;;;;;;;3.75;0.90;;;;;;;23.37;42.13;97183.81;2048063;28;20230;-66
2022/07/13 07:15:58;;;;;;;2.25;0.80;;;;;;;23.40;43.13;97191.53;2059875;28;20210;-66
2022/07/13 07:17:02;;;;;;;2.58;0.65;;;;;;;22.99;43.58;97180.84;2067825;28;20222;-67
2022/07/13 07:18:04;;;;;;;5.82;0.80;;;;;;;22.91;42.55;97194.81;2077681;28;20583;-66
2022/07/13 07:19:10;;;;;;;10.43;1.00;;;;;;;23.02;43.68;97187.72;2083350;28;20622;-66
2022/07/13 07:20:26;;;;;;;1.63;0.80;;;;;;;23.47;43.63;97190.84;2070879;28;20206;-66
2022/07/13 07:21:28;;;;;;;5.45;0.80;;;;;;;23.66;41.67;97197.22;2073360;28;20215;-66
2022/07/13 07:22:29;;;;;;;2.10;0.90;;;;;;;23.74;41.83;97205.34;2071922;28;20221;-66
2022/07/13 07:23:32;;;;;;;1.70;0.80;;;;;;;23.84;41.65;97196.53;2073479;28;20197;-66
2022/07/13 07:24:34;;;;;;;1.45;0.70;;;;;;;23.66;42.13;97188.38;2082590;28;20192;-67
2022/07/13 07:25:36;;;;;;;2.40;0.90;;;;;;;23.50;41.61;97199.56;2073528;28;20317;-67
2022/07/13 07:26:37;;;;;;;3.15;0.80;;;;;;;23.59;42.28;97196.91;2071241;28;20198;-66
2022/07/13 07:27:40;;;;;;;1.77;0.80;;;;;;;23.89;41.87;97186.31;2071814;28;20394;-66
2022/07/13 07:28:41;;;;;;;2.55;0.85;;;;;;;24.00;41.86;97188.00;2064880;28;20685;-66
2022/07/13 07:29:43;;;;;;;1.85;0.80;;;;;;;24.04;41.76;97192.09;2065767;28;20202;-66
2022/07/13 07:30:44;;;;;;;2.85;1.05;;;;;;;24.34;41.40;97196.44;2072380;28;20335;-67
2022/07/13 07:31:46;;;;;;;2.75;0.93;;;;;;;24.62;41.68;97192.03;2071337;28;20233;-66
2022/07/13 07:32:47;;;;;;;1.85;0.80;;;;;;;24.68;40.22;97189.81;2075058;28;20233;-66
2022/07/13 07:33:49;;;;;;;1.65;0.90;;;;;;;24.49;40.48;97183.47;2073703;28;20252;-67
2022/07/13 07:34:51;;;;;;;6.72;1.17;;;;;;;24.54;40.62;97191.06;2073617;28;20285;-66
2022/07/13 07:35:52;;;;;;;2.17;0.90;;;;;;;24.78;39.57;97193.28;2074012;28;20213;-66
2022/07/13 07:36:54;;;;;;;3.30;0.77;;;;;;;24.87;40.42;97194.25;2068686;28;20198;-66
2022/07/13 07:37:56;;;;;;;3.80;1.15;;;;;;;24.85;40.53;97191.75;2071481;28;20208;-67
2022/07/13 07:38:58;;;;;;;2.80;0.80;;;;;;;25.07;40.13;97193.19;2072503;28;20563;-67
2022/07/13 07:40:00;;;;;;;2.70;1.05;;;;;;;25.29;39.95;97187.63;2072009;28;20217;-67
2022/07/13 07:41:01;;;;;;;12.20;1.10;;;;;;;25.30;39.26;97192.00;2073412;28;20201;-67
2022/07/13 07:42:04;;;;;;;4.88;0.90;;;;;;;25.24;40.01;97193.41;2071713;28;20238;-67
2022/07/13 07:43:05;;;;;;;2.45;0.90;;;;;;;24.96;38.10;97205.91;2072556;28;20199;-66
2022/07/13 07:44:08;;;;;;;1.75;0.82;;;;;;;24.50;37.34;97195.03;2070504;28;20195;-66
2022/07/13 07:45:10;;;;;;;4.57;0.95;;;;;;;24.19;38.54;97177.34;2069875;28;20759;-66
2022/07/13 07:46:11;;;;;;;4.60;0.75;;;;;;;24.44;38.73;97197.28;2071401;28;20693;-66
2022/07/13 07:47:13;;;;;;;2.65;0.50;;;;;;;24.49;37.79;97196.81;2073218;28;20225;-66
2022/07/13 07:48:14;;;;;;;1.10;0.60;;;;;;;24.71;37.26;97193.03;2069221;28;20209;-66
2022/07/13 07:49:16;;;;;;;1.17;0.50;;;;;;;24.48;37.16;97200.50;2074060;28;20212;-66
2022/07/13 07:50:17;;;;;;;1.98;0.70;;;;;;;24.51;36.71;97197.53;2073846;28;20189;-66
2022/07/13 07:51:19;;;;;;;1.30;0.60;;;;;;;24.68;36.58;97190.66;2073082;28;20194;-66
2022/07/13 07:52:21;;;;;;;1.10;0.60;;;;;;;24.73;36.29;97199.06;2074148;28;20225;-66
2022/07/13 07:53:43;;;;;;;1.45;0.85;;;;;;;25.02;36.38;97186.63;2071542;28;20232;-66
2022/07/13 07:54:46;;;;;;;1.30;0.60;;;;;;;25.26;36.15;97197.63;2075137;28;20279;-66
2022/07/13 07:55:54;;;;;;;1.83;0.85;;;;;;;25.20;35.85;97192.88;2074640;28;20239;-66
2022/07/13 07:56:55;;;;;;;1.60;0.65;;;;;;;25.41;36.26;97192.66;2066616;28;20226;-66
2022/07/13 07:57:58;;;;;;;3.45;0.70;;;;;;;25.36;36.10;97194.13;2071903;28;20210;-67
2022/07/13 07:59:00;;;;;;;2.85;0.80;;;;;;;25.37;34.79;97190.44;2073299;28;20201;-66
2022/07/13 08:00:02;;;;;;;2.08;0.80;;;;;;;25.48;35.71;97194.75;2074104;28;20205;-66
2022/07/13 08:01:03;;;;;;;2.25;0.85;;;;;;;25.42;34.89;97188.19;2072443;28;20811;-66
2022/07/13 08:02:06;;;;;;;2.80;0.90;;;;;;;25.01;36.25;97190.28;2074247;28;20221;-66
2022/07/13 08:03:08;;;;;;;11.07;1.20;;;;;;;25.51;35.46;97189.94;2073778;28;20194;-66
2022/07/13 08:04:10;;;;;;;2.72;1.13;;;;;;;25.65;35.69;97193.94;2073508;28;20292;-67
2022/07/13 08:05:11;;;;;;;1.83;0.95;;;;;;;25.55;35.73;97198.50;2072410;28;20193;-67
2022/07/13 08:06:14;;;;;;;1.40;0.70;;;;;;;25.63;35.43;97192.41;2062232;28;20206;-68
2022/07/13 08:07:15;;;;;;;1.40;0.70;;;;;;;25.58;36.18;97184.84;2062351;28;20585;-67
2022/07/13 08:08:18;;;;;;;1.10;0.50;;;;;;;25.47;35.31;97195.72;2065411;28;20271;-67
2022/07/13 08:09:19;;;;;;;5.78;0.70;;;;;;;25.48;35.19;97184.88;2068454;28;20605;-67
2022/07/13 08:10:21;;;;;;;1.63;0.65;;;;;;;25.35;35.82;97190.53;2069889;28;20198;-68
2022/07/13 08:11:30;;;;;;;1.30;0.60;;;;;;;25.67;35.73;97183.91;2068257;28;20209;-67
2022/07/13 08:12:33;;;;;;;1.83;0.73;;;;;;;26.07;33.87;97185.38;2069593;28;20222;-67
2022/07/13 08:13:34;;;;;;;1.30;0.70;;;;;;;26.04;34.54;97188.34;2069544;28;20199;-68
2022/07/13 08:14:36;;;;;;;1.58;0.60;;;;;;;25.97;34.97;97189.91;2068630;28;20229;-68
2022/07/13 08:15:38;;;;;;;1.23;0.70;;;;;;;26.00;35.54;97189.59;2059170;28;20198;-68
2022/07/13 08:16:40;;;;;;;1.30;0.60;;;;;;;25.34;36.75;97182.69;2056799;28;20191;-68
2022/07/13 08:17:42;;;;;;;1.50;0.80;;;;;;;25.41;36.33;97184.66;2063261;28;20210;-68
2022/07/13 08:18:44;;;;;;;1.20;0.68;;;;;;;25.73;36.24;97195.88;2065549;28;20201;-67
2022/07/13 08:20:07;;;;;;;2.85;0.60;;;;;;;26.20;34.64;97179.63;2065328;28;20245;-67
2022/07/13 08:21:09;;;;;;;1.98;0.70;;;;;;;26.55;34.32;97185.94;2068545;28;20194;-68
2022/07/13 08:22:10;;;;;;;1.38;0.70;;;;;;;26.14;35.21;97182.09;2060337;28;20231;-69
2022/07/13 08:24:32;;;;;;;1.20;0.60;;;;;;;26.23;35.32;97192.72;2065135;28;20665;-68
2022/07/13 08:25:33;;;;;;;2.88;0.70;;;;;;;26.59;34.63;97185.59;2065734;28;20198;-68
2022/07/13 08:26:35;;;;;;;1.45;0.82;;;;;;;26.61;33.06;97183.63;2067126;28;20206;-68
2022/07/13 08:27:36;;;;;;;2.10;0.73;;;;;;;26.70;33.66;97182.66;2066827;28;20858;-68
2022/07/13 08:28:38;;;;;;;1.52;0.60;;;;;;;26.55;33.42;97183.25;2065323;28;20205;-68
2022/07/13 08:29:40;;;;;;;1.10;0.60;;;;;;;26.46;33.96;97180.66;2066166;28;20201;-68
2022/07/13 08:30:41;;;;;;;1.10;0.60;;;;;;;26.36;33.34;97180.75;2067500;28;20201;-68
2022/07/13 08:31:43;;;;;;;1.95;0.65;;;;;;;26.48;33.34;97178.69;2067101;28;20685;-68
2022/07/13 08:32:44;;;;;;;1.25;0.60;;;;;;;26.72;33.50;97184.19;2066777;28;20198;-68
2022/07/13 08:39:10;;;;;;;1.63;0.60;;;;;;;26.59;33.61;97180.25;2066224;28;20235;-68
2022/07/13 08:40:20;;;;;;;1.60;0.70;;;;;;;26.58;33.63;97186.63;2065952;28;20187;-68
2022/07/13 08:41:23;;;;;;;1.80;0.60;;;;;;;26.41;33.65;97186.50;2068731;28;20205;-68
2022/07/13 08:42:24;;;;;;;1.50;0.77;;;;;;;26.61;32.77;97180.94;2065243;28;20716;-68
2022/07/13 08:43:26;;;;;;;2.47;1.25;;;;;;;26.40;32.03;97174.94;2063630;28;20205;-68
2022/07/13 08:44:28;;;;;;;25.77;2.08;;;;;;;26.81;30.63;97177.09;2063130;28;20205;-68
2022/07/13 08:45:36;;;;;;;1.67;0.60;;;;;;;26.36;30.82;97181.59;2066328;28;20197;-68
2022/07/13 08:46:39;;;;;;;2.20;0.60;;;;;;;26.49;32.19;97173.16;2066505;28;20331;-68
2022/07/13 08:47:45;;;;;;;1.35;0.63;;;;;;;26.70;30.25;97172.81;2067998;28;20538;-69
2022/07/13 08:48:49;;;;;;;1.33;0.70;;;;;;;26.99;31.05;97173.50;2066199;28;20206;-68
2022/07/13 08:49:54;;;;;;;1.60;1.00;;;;;;;27.01;30.23;97163.47;2065240;28;20202;-68
2022/07/13 08:51:03;;;;;;;2.72;1.38;;;;;;;27.23;29.72;97169.28;2065523;28;20198;-68
2022/07/13 08:52:05;;;;;;;1.77;0.77;;;;;;;26.73;30.23;97183.22;2067266;28;20226;-69
2022/07/13 08:53:06;;;;;;;1.55;0.60;;;;;;;26.52;30.55;97164.81;2066638;28;20201;-69
2022/07/13 08:54:08;;;;;;;3.05;0.70;;;;;;;26.62;30.50;97170.06;2067552;28;20196;-70
2022/07/13 08:55:09;;;;;;;1.40;0.73;;;;;;;26.46;30.23;97160.09;2066938;28;20285;-70
2022/07/13 08:56:11;;;;;;;1.10;0.57;;;;;;;26.35;29.97;97163.03;2067623;28;20915;-70
2022/07/13 08:57:17;;;;;;;2.13;0.50;;;;;;;26.46;30.46;97160.09;2068787;28;20825;-70
2022/07/13 08:58:18;;;;;;;1.10;0.60;;;;;;;26.84;30.12;97173.25;2065001;28;20694;-70
2022/07/13 08:59:20;;;;;;;5.03;0.60;;;;;;;26.96;29.32;97174.66;2068415;28;20769;-70
2022/07/13 09:00:22;;;;;;;2.50;0.80;;;;;;;27.42;29.57;97173.56;2067069;28;20198;-70
2022/07/13 09:01:24;;;;;;;1.60;0.80;;;;;;;27.51;29.59;97173.41;2068280;28;20608;-70
2022/07/13 09:02:26;;;;;;;1.50;0.60;;;;;;;26.96;29.16;97169.31;2066423;28;20279;-71
2022/07/13 09:03:33;;;;;;;1.15;0.70;;;;;;;26.97;30.24;97170.13;2070303;28;20228;-71
2022/07/13 09:26:11;;;;;;;1.90;0.70;;;;;;;28.10;25.70;97174.41;2090302;28;20547;-66
2022/07/13 09:27:15;;;;;;;1.00;0.60;;;;;;;28.08;26.26;97171.06;2078882;28;20224;-68
2022/07/13 09:28:16;;;;;;;3.42;0.93;;;;;;;28.06;25.75;97175.75;2077579;28;20204;-67
2022/07/13 09:29:21;;;;;;;1.10;0.60;;;;;;;27.79;26.09;97170.47;2078215;28;20193;-65
2022/07/13 09:30:24;;;;;;;1.10;0.60;;;;;;;27.73;25.96;97168.47;2078514;28;20200;-67
2022/07/13 09:31:26;;;;;;;1.20;0.50;;;;;;;27.83;25.94;97170.97;2078914;28;20284;-67
2022/07/13 09:32:27;;;;;;;1.27;0.60;;;;;;;28.21;25.60;97166.03;2069887;28;20268;-68
2022/07/13 09:33:34;;;;;;;1.10;0.60;;;;;;;27.85;25.93;97166.31;2068567;28;20198;-69
2022/07/13 09:34:54;;;;;;;1.80;0.70;;;;;;;28.08;24.98;97171.88;2067771;28;20201;-69
2022/07/13 09:35:56;;;;;;;1.50;0.60;;;;;;;28.31;24.70;97168.53;2070456;28;20704;-65
2022/07/13 09:37:11;;;;;;;1.23;0.55;;;;;;;28.23;24.71;97168.56;2070045;28;20275;-65
2022/07/13 09:38:30;;;;;;;1.55;0.57;;;;;;;28.14;24.48;97178.44;2070273;28;20208;-65
2022/07/13 09:39:32;;;;;;;1.33;0.60;;;;;;;28.28;23.68;97175.09;2067419;28;20197;-65
2022/07/13 09:40:33;;;;;;;1.98;0.50;;;;;;;28.36;23.95;97168.88;2067608;28;20199;-66
2022/07/13 09:41:35;;;;;;;1.50;0.70;;;;;;;28.13;23.65;97174.91;2070037;28;20198;-66
2022/07/13 09:42:42;;;;;;;1.73;0.70;;;;;;;28.24;23.72;97180.94;2070502;28;20540;-64
2022/07/13 09:46:54;;;;;;;2.35;0.60;;;;;;;28.33;24.12;97179.97;2069347;28;20200;-66
2022/07/13 09:47:57;;;;;;;1.65;0.50;;;;;;;28.43;24.38;97171.72;2069770;28;20204;-64
2022/07/13 09:48:58;;;;;;;2.80;0.63;;;;;;;28.38;24.33;97183.00;2068825;28;20194;-65
2022/07/13 09:50:00;;;;;;;1.33;0.60;;;;;;;28.35;24.82;97169.88;2070417;28;20208;-64
2022/07/13 09:51:01;;;;;;;2.72;0.60;;;;;;;28.60;24.57;97184.13;2069785;28;20194;-63
2022/07/13 09:52:05;;;;;;;1.52;0.60;;;;;;;28.58;23.64;97182.63;2067250;28;20577;-65
2022/07/13 09:53:27;;;;;;;1.00;0.50;;;;;;;28.66;22.80;97180.81;2066916;28;20197;-66
2022/07/13 09:54:31;;;;;;;2.75;0.70;;;;;;;28.54;22.60;97181.28;2070167;28;20649;-65
2022/07/13 09:55:34;;;;;;;1.50;0.57;;;;;;;28.58;22.51;97183.47;2068746;28;20202;-65
2022/07/13 10:17:55;;;;;;;5.65;0.70;;;;;;;28.04;21.25;97167.88;2099285;27;20571;-63
2022/07/13 10:19:03;;;;;;;1.20;0.60;;;;;;;28.43;20.60;97171.72;2095041;28;20195;-63
2022/07/13 10:20:16;;;;;;;1.30;0.60;;;;;;;29.16;24.63;97170.75;2095071;28;20263;-63
2022/07/13 10:22:01;;;;;;;1.35;0.50;;;;;;;29.81;19.79;97178.72;2094925;28;20200;-64
2022/07/13 10:23:04;;;;;;;9.57;2.33;;;;;;;29.80;20.47;97179.72;2086248;28;20238;-64
2022/07/13 10:24:17;;;;;;;1.10;0.60;;;;;;;30.28;19.44;97172.38;2075003;28;20868;-64
2022/07/13 10:25:19;;;;;;;1.20;0.60;;;;;;;30.69;19.47;97171.22;2075719;28;20722;-64
2022/07/13 10:26:22;;;;;;;4.25;0.80;;;;;;;30.56;18.69;97169.16;2086793;28;20197;-64
2022/07/13 10:27:29;;;;;;;1.63;0.80;;;;;;;30.12;19.49;97172.50;2085870;28;20270;-64
2022/07/13 10:28:32;;;;;;;1.40;0.60;;;;;;;30.21;18.68;97171.41;2085866;28;20200;-64
2022/07/13 10:29:47;;;;;;;1.37;0.60;;;;;;;30.01;18.38;97165.69;2086401;28;20200;-64
2022/07/13 10:30:49;;;;;;;1.80;0.70;;;;;;;29.91;18.47;97160.53;2086331;28;20800;-64
2022/07/13 10:31:59;;;;;;;6.70;0.70;;;;;;;30.15;18.90;97158.69;2086335;28;20315;-64
2022/07/13 10:33:21;;;;;;;1.00;0.50;;;;;;;29.93;18.82;97163.06;2086365;28;20197;-64
2022/07/13 10:34:49;;;;;;;3.60;0.63;;;;;;;29.73;18.07;97174.22;2085855;28;20441;-64
2022/07/13 10:35:53;;;;;;;1.50;0.70;;;;;;;30.45;18.51;97165.00;2086292;28;21313;-66
2022/07/13 10:36:56;;;;;;;15.97;0.83;;;;;;;30.47;17.29;97175.56;2085770;28;20192;-66
2022/07/13 10:38:00;;;;;;;1.00;0.50;;;;;;;30.05;19.69;97172.38;2085242;28;20453;-66
2022/07/13 10:39:10;;;;;;;1.20;0.70;;;;;;;30.03;19.15;97168.19;2086694;28;20836;-66
2022/07/13 10:40:14;;;;;;;3.53;0.50;;;;;;;29.91;18.89;97170.47;2086700;28;20964;-64
2022/07/13 10:41:20;;;;;;;3.03;0.60;;;;;;;29.90;19.18;97160.72;2086735;28;20438;-63
2022/07/13 10:42:21;;;;;;;2.27;0.80;;;;;;;31.18;19.37;97169.03;2086148;28;20976;-64
2022/07/13 10:43:23;;;;;;;2.07;0.77;;;;;;;31.91;18.77;97159.13;2086759;28;20417;-64
2022/07/13 10:44:33;;;;;;;1.17;0.60;;;;;;;32.63;17.76;97159.16;2086634;28;20425;-64
2022/07/13 10:45:40;;;;;;;2.07;0.70;;;;;;;32.94;17.36;97160.66;2085981;28;20456;-63
2022/07/13 10:46:48;;;;;;;7.90;0.60;;;;;;;33.42;17.83;97161.75;2093404;28;20425;-64
2022/07/13 10:47:49;;;;;;;1.67;0.60;;;;;;;32.64;16.90;97163.53;2092847;28;20541;-64
2022/07/13 10:48:51;;;;;;;2.27;0.73;;;;;;;31.75;18.23;97160.19;2086747;28;20939;-64
2022/07/13 10:49:53;;;;;;;1.50;0.73;;;;;;;31.15;18.55;97166.69;2086735;28;20432;-63
2022/07/13 10:50:57;;;;;;;1.00;0.50;;;;;;;31.39;17.33;97163.72;2086501;28;20917;-63
2022/07/13 10:53:37;;;;;;;1.10;0.50;;;;;;;31.81;17.27;97152.38;2086613;28;20434;-63
2022/07/13 10:54:39;;;;;;;1.70;0.50;;;;;;;32.65;17.08;97154.41;2085475;28;20917;-64
2022/07/13 10:55:48;;;;;;;1.10;0.60;;;;;;;33.17;15.62;97156.84;2086636;28;20430;-64
2022/07/13 10:57:13;;;;;;;1.50;0.60;;;;;;;32.19;15.49;97155.69;2085315;28;20449;-63
2022/07/13 10:58:42;;;;;;;1.67;0.60;;;;;;;32.48;16.03;97151.16;2085751;28;20490;-63
2022/07/13 10:59:49;;;;;;;1.40;0.60;;;;;;;32.26;14.94;97142.25;2085890;28;20433;-63
2022/07/13 11:00:51;;;;;;;1.10;0.50;;;;;;;32.11;15.74;97150.38;2086596;28;20832;-63
2022/07/13 11:01:53;;;;;;;2.30;0.60;;;;;;;32.39;16.02;97145.06;2086129;28;20916;-63
2022/07/13 11:03:02;;;;;;;1.00;0.57;;;;;;;33.28;15.68;97150.91;2086630;28;20422;-63
2022/07/13 11:04:05;;;;;;;2.30;0.60;;;;;;;33.21;14.88;97148.09;2077127;28;20492;-63
2022/07/13 11:05:07;;;;;;;1.20;0.60;;;;;;;32.61;15.22;97145.03;2084830;28;20956;-64
2022/07/13 11:06:12;;;;;;;2.80;1.47;;;;;;;32.51;15.28;97144.53;2086511;28;20827;-66
2022/07/13 11:07:13;;;;;;;15.03;10.33;;;;;;;32.53;14.80;97148.72;2085523;28;20557;-64
2022/07/13 11:08:15;;;;;;;1.13;0.67;;;;;;;32.19;15.15;97146.78;2085666;28;20434;-64
2022/07/13 11:09:20;;;;;;;1.20;0.70;;;;;;;32.25;15.18;97143.28;2084454;28;20486;-64
2022/07/13 11:10:30;;;;;;;2.57;1.57;;;;;;;32.75;15.07;97147.84;2086442;28;20792;-64
2022/07/13 11:11:32;;;;;;;1.00;0.60;;;;;;;32.60;15.03;97143.34;2085974;28;20436;-66
2022/07/13 11:12:34;;;;;;;1.63;0.90;;;;;;;32.56;14.79;97137.50;2085998;28;20454;-66
2022/07/13 11:13:36;;;;;;;1.77;0.87;;;;;;;32.52;14.21;97138.09;2085785;28;20433;-66
2022/07/13 11:14:40;;;;;;;1.50;0.60;;;;;;;32.39;14.78;97141.50;2086564;28;20437;-66
2022/07/13 11:15:50;;;;;;;1.03;0.60;;;;;;;32.59;13.22;97125.47;2086296;28;20429;-66
2022/07/13 11:16:52;;;;;;;2.07;0.80;;;;;;;33.48;13.98;97134.72;2084260;28;20426;-67
2022/07/13 11:18:22;;;;;;;1.00;0.53;;;;;;;32.78;13.89;97133.94;2085589;28;20495;-66
2022/07/13 11:20:00;;;;;;;1.57;0.80;;;;;;;32.80;14.04;97126.44;2086088;28;20552;-67
2022/07/13 11:21:03;;;;;;;1.10;0.53;;;;;;;32.34;13.74;97123.22;2086281;28;20780;-67
2022/07/13 11:22:10;;;;;;;1.10;0.60;;;;;;;32.03;13.27;97129.75;2085910;28;20510;-67
2022/07/13 11:26:13;;;;;;;1.30;0.50;;;;;;;31.67;13.66;97127.09;2086434;28;20430;-66
2022/07/13 11:48:32;;;;;;;5.70;0.60;;;;;;;34.00;15.66;97118.03;2089385;28;20555;-66
2022/07/13 11:49:51;;;;;;;1.10;0.60;;;;;;;35.10;14.46;97119.44;2093607;28;21095;-66
2022/07/13 11:50:53;;;;;;;1.30;0.53;;;;;;;33.85;15.51;97107.38;2089884;28;20870;-67
2022/07/13 11:51:55;;;;;;;1.10;0.50;;;;;;;33.84;15.35;97103.84;2069553;28;20995;-66
2022/07/13 11:52:57;;;;;;;2.30;0.70;;;;;;;33.45;15.99;97107.25;2046153;28;20855;-66
2022/07/13 11:54:10;;;;;;;1.03;0.60;;;;;;;33.98;15.38;97104.69;2054326;28;20441;-66
2022/07/13 11:55:11;;;;;;;2.37;0.73;;;;;;;32.84;16.53;97100.72;2067153;28;20427;-67
2022/07/13 11:56:13;;;;;;;2.90;0.60;;;;;;;31.61;17.40;97095.47;2069646;28;20435;-66
2022/07/13 11:57:19;;;;;;;1.10;0.60;;;;;;;32.75;16.84;97094.63;2069420;28;20455;-66
2022/07/13 11:58:29;;;;;;;2.20;0.70;;;;;;;32.90;16.91;97089.09;2069917;28;21043;-66
2022/07/13 11:59:38;;;;;;;1.20;0.60;;;;;;;33.87;15.68;97099.06;2069053;28;20428;-66
2022/07/13 12:00:39;;;;;;;2.57;0.70;;;;;;;33.81;15.42;97095.28;2075060;28;20936;-66
2022/07/13 12:01:49;;;;;;;1.10;0.70;;;;;;;33.65;16.11;97091.91;2075957;28;20427;-66
2022/07/13 12:02:55;;;;;;;3.43;0.60;;;;;;;33.90;16.34;97094.03;2068042;28;20907;-67
2022/07/13 12:03:57;;;;;;;2.90;0.70;;;;;;;33.31;15.90;97092.84;2069793;28;20538;-66
2022/07/13 12:04:59;;;;;;;3.63;0.60;;;;;;;32.75;16.42;97085.66;2069673;28;20440;-67
2022/07/13 12:06:08;;;;;;;1.00;0.57;;;;;;;32.66;16.15;97082.25;2068888;28;20442;-67
2022/07/13 12:07:21;;;;;;;2.50;0.67;;;;;;;32.37;16.68;97086.88;2076956;28;21042;-68
2022/07/13 12:08:24;;;;;;;2.70;0.60;;;;;;;32.15;17.02;97075.22;2074531;28;20454;-68
2022/07/13 12:09:25;;;;;;;1.20;0.57;;;;;;;32.02;17.45;97086.75;2067074;28;20427;-67
2022/07/13 12:10:27;;;;;;;1.53;0.60;;;;;;;32.19;16.81;97088.19;2068129;28;20454;-68
2022/07/13 12:11:32;;;;;;;1.00;0.70;;;;;;;32.94;16.52;97079.56;2069019;28;20431;-68
2022/07/13 12:12:40;;;;;;;1.00;0.53;;;;;;;33.59;16.38;97075.66;2060987;28;20463;-68
2022/07/13 12:13:42;;;;;;;1.00;0.50;;;;;;;34.08;16.01;97079.91;2058785;28;20756;-68
2022/07/13 12:14:44;;;;;;;1.73;0.70;;;;;;;34.27;15.97;97074.69;2060604;28;20447;-68
2022/07/13 12:15:46;;;;;;;4.47;0.77;;;;;;;34.81;16.14;97086.31;2061343;28;20432;-68
2022/07/13 12:16:47;;;;;;;1.00;0.60;;;;;;;34.17;15.05;97084.06;2057135;28;20432;-68
2022/07/13 12:17:49;;;;;;;4.17;1.10;;;;;;;34.29;14.92;97078.03;2059278;28;20460;-68
2022/07/13 12:19:08;;;;;;;2.80;0.60;;;;;;;34.01;15.02;97073.66;2059805;28;20923;-68
2022/07/13 12:20:13;;;;;;;8.00;6.83;;;;;;;33.83;15.46;97082.38;2059119;28;20749;-66
2022/07/13 12:21:15;;;;;;;7.90;5.13;;;;;;;33.75;14.82;97077.13;2058971;28;20532;-68
2022/07/13 12:22:23;;;;;;;24.70;18.50;;;;;;;34.12;14.87;97075.75;2055365;28;21037;-68
2022/07/13 12:23:31;;;;;;;3.90;2.07;;;;;;;33.96;14.62;97076.16;2059066;28;20423;-68
2022/07/13 12:24:34;;;;;;;2.80;1.83;;;;;;;34.04;14.94;97072.41;2059253;28;20898;-67
2022/07/13 12:25:37;;;;;;;1.10;0.50;;;;;;;33.97;14.74;97065.09;2058569;28;20519;-68
2022/07/13 12:26:50;;;;;;;1.00;0.60;;;;;;;33.53;15.29;97066.47;2058522;28;20436;-67
2022/07/13 12:27:53;;;;;;;1.60;0.70;;;;;;;34.43;15.54;97071.56;2058600;28;20428;-67
2022/07/13 12:28:55;;;;;;;1.30;0.60;;;;;;;34.89;14.76;97058.97;2058936;28;20519;-68
2022/07/13 12:30:11;;;;;;;1.00;0.57;;;;;;;35.54;14.62;97065.41;2060784;28;20931;-67
2022/07/13 12:31:12;;;;;;;1.37;0.60;;;;;;;33.59;15.20;97054.00;2059207;28;20428;-67
2022/07/13 12:32:14;;;;;;;2.73;0.60;;;;;;;33.51;15.23;97049.63;2056968;28;20560;-68
2022/07/13 12:33:15;;;;;;;1.00;0.60;;;;;;;33.34;15.67;97052.69;2059167;28;20511;-68
2022/07/13 12:34:20;;;;;;;3.17;0.80;;;;;;;34.32;15.22;97054.06;2060445;28;20436;-68
2022/07/13 12:35:25;;;;;;;2.90;0.60;;;;;;;35.19;14.52;97055.75;2059565;28;20435;-68
2022/07/13 12:36:26;;;;;;;1.20;0.60;;;;;;;35.53;13.71;97050.16;2059439;28;20420;-68
2022/07/13 12:37:37;;;;;;;6.10;0.60;;;;;;;35.03;14.09;97051.63;2060872;28;20589;-68
2022/07/13 12:39:02;;;;;;;1.40;0.50;;;;;;;34.47;14.87;97056.53;2061385;28;20461;-68
2022/07/13 12:40:04;;;;;;;1.10;0.50;;;;;;;35.25;14.12;97044.03;2060284;28;20424;-68
2022/07/13 12:41:06;;;;;;;1.00;0.60;;;;;;;35.70;13.78;97056.72;2060675;28;20443;-68
2022/07/13 12:42:08;;;;;;;1.23;0.60;;;;;;;34.94;14.44;97045.59;2058580;28;20463;-67
2022/07/13 12:43:16;;;;;;;1.00;0.60;;;;;;;34.54;14.48;97053.00;2058976;28;20444;-67
2022/07/13 12:44:27;;;;;;;4.90;1.00;;;;;;;34.61;14.35;97046.50;2059233;28;20764;-67
2022/07/13 12:45:32;;;;;;;4.00;0.70;;;;;;;34.87;14.56;97046.69;2059497;28;20424;-66
2022/07/13 12:46:54;;;;;;;1.10;0.60;;;;;;;34.63;14.42;97052.56;2059049;28;20439;-67
2022/07/13 12:47:56;;;;;;;1.00;0.70;;;;;;;34.27;14.55;97044.88;2057833;28;21007;-67
2022/07/13 12:49:00;;;;;;;2.70;0.70;;;;;;;34.61;14.09;97051.94;2058300;28;20678;-67
2022/07/13 12:50:02;;;;;;;1.10;0.50;;;;;;;34.28;14.32;97041.13;2056478;28;20443;-67
2022/07/13 12:51:09;;;;;;;1.10;0.60;;;;;;;35.04;13.96;97041.63;2056655;28;20433;-65
2022/07/13 12:52:12;;;;;;;1.20;0.50;;;;;;;34.11;14.92;97043.44;2056273;28;20827;-65
2022/07/13 12:53:13;;;;;;;3.00;0.67;;;;;;;35.40;14.35;97041.06;2059327;28;20819;-64
2022/07/13 12:54:14;;;;;;;1.23;0.60;;;;;;;36.37;14.22;97039.94;2059131;28;20438;-67
2022/07/13 12:55:16;;;;;;;1.20;0.60;;;;;;;36.12;13.19;97035.31;2058746;28;20433;-67
2022/07/13 12:56:19;;;;;;;0.97;0.60;;;;;;;36.55;13.34;97033.69;2059659;28;20429;-66
2022/07/13 12:57:23;;;;;;;2.70;0.50;;;;;;;35.78;13.79;97044.78;2058891;28;20467;-67
2022/07/13 12:59:08;;;;;;;3.13;0.77;;;;;;;35.56;13.86;97036.97;2058210;28;20440;-65
2022/07/13 13:00:11;;;;;;;10.60;3.97;;;;;;;35.52;16.46;97030.34;2043922;29;21244;-66
2022/07/13 13:01:31;;;;;;;4.70;3.30;;;;;;;35.82;14.70;97037.88;2042484;29;20434;-66
2022/07/13 13:02:33;;;;;;;1.83;0.73;;;;;;;36.00;15.63;97036.28;2045737;28;20461;-66
2022/07/13 13:03:35;;;;;;;1.13;0.60;;;;;;;35.05;15.53;97035.97;2044218;29;20476;-66